Time;durP1;ratioP1;P1;durP2;ratioP2;P2;SDS_P1;SDS_P2;PMS_P1;PMS_P2;Temp;Humidity;BMP_temperature;BMP_pressure;BME280_temperature;BME280_humidity;BME280_pressure;Samples;Min_cycle;Max_cycle;Signal;HPM_P1;HPM_P2
2021/09/26 00:01:15;;;;;;;14.00;8.70;;;;;;;11.86;75.48;98007.48;117334;1177;68164;-74
2021/09/26 00:03:45;;;;;;;12.50;9.10;;;;;;;11.86;76.02;98004.87;117248;1177;68487;-73
2021/09/26 00:06:14;;;;;;;;;;;;;;;11.86;76.26;97999.94;117037;1177;59092;-74
2021/09/26 00:08:43;;;;;;;12.50;8.60;;;;;;;11.84;78.00;97996.78;117307;1176;58659;-72
2021/09/26 00:11:13;;;;;;;11.20;8.20;;;;;;;11.86;75.78;97995.44;117361;1177;69769;-73
2021/09/26 00:13:43;;;;;;;10.50;8.30;;;;;;;11.82;77.25;97987.13;117322;1177;70202;-73
2021/09/26 00:16:13;;;;;;;9.80;7.10;;;;;;;11.76;76.58;97989.44;117401;1177;69215;-73
2021/09/26 00:18:42;;;;;;;9.50;7.40;;;;;;;11.72;76.29;97994.26;117313;1175;58719;-73
2021/09/26 00:21:11;;;;;;;13.10;8.90;;;;;;;11.68;76.22;98002.70;117359;1176;58742;-77
2021/09/26 00:23:40;;;;;;;7.70;5.80;;;;;;;11.63;76.59;98003.74;117334;1170;70687;-74
2021/09/26 00:26:10;;;;;;;10.60;7.80;;;;;;;11.57;76.90;98005.08;117302;1177;68999;-72
2021/09/26 00:28:39;;;;;;;10.80;7.50;;;;;;;11.44;78.64;98002.07;117035;1177;69039;-74
2021/09/26 00:31:08;;;;;;;9.70;6.80;;;;;;;11.43;77.69;98003.70;117021;1177;58713;-74
2021/09/26 00:33:37;;;;;;;9.20;7.60;;;;;;;11.41;77.47;98001.89;116973;1177;58729;-72
2021/09/26 00:36:06;;;;;;;12.60;8.60;;;;;;;11.40;77.98;98000.40;117010;1177;69647;-75
2021/09/26 00:38:35;;;;;;;9.30;6.30;;;;;;;11.36;78.98;98001.21;117076;1177;68605;-73
2021/09/26 00:41:04;;;;;;;9.00;6.30;;;;;;;11.36;78.79;98006.13;117036;1177;69248;-74
2021/09/26 00:43:36;;;;;;;10.10;7.50;;;;;;;11.35;78.97;98005.32;117068;1177;58943;-72
2021/09/26 00:46:06;;;;;;;5.90;4.50;;;;;;;11.35;77.83;98000.08;117038;1177;58665;-73
2021/09/26 00:48:36;;;;;;;5.90;4.80;;;;;;;11.37;77.03;98006.40;117055;1177;70562;-74
2021/09/26 00:51:11;;;;;;;7.60;5.50;;;;;;;11.40;76.50;98008.27;117101;1177;68470;-72
2021/09/26 00:53:42;;;;;;;9.10;7.10;;;;;;;11.41;77.04;98001.07;116996;1177;68405;-74
2021/09/26 00:56:12;;;;;;;7.00;5.00;;;;;;;11.40;77.26;98001.27;116931;1177;58742;-74
2021/09/26 00:58:42;;;;;;;;;;;;;;;11.42;76.21;98000.48;117067;1177;58656;-74
2021/09/26 01:01:11;;;;;;;4.70;3.50;;;;;;;11.42;76.07;98001.17;117067;1177;68803;-72
2021/09/26 01:03:41;;;;;;;8.30;6.10;;;;;;;11.43;76.99;98004.44;117037;1177;68418;-73
2021/09/26 01:06:35;;;;;;;7.00;5.00;;;;;;;11.42;76.89;98009.20;117045;1177;69021;-75
2021/09/26 01:09:08;;;;;;;8.30;6.20;;;;;;;11.42;76.22;98006.21;117044;1177;58748;-74
2021/09/26 01:11:56;;;;;;;7.40;5.00;;;;;;;11.42;77.44;98003.07;117080;1177;58735;-73
2021/09/26 01:14:34;;;;;;;6.30;4.80;;;;;;;11.42;78.17;98010.27;117064;1177;70416;-74
2021/09/26 01:17:27;;;;;;;8.00;5.40;;;;;;;11.41;77.44;98010.29;117239;1177;69101;-74
2021/09/26 01:20:21;;;;;;;5.70;3.50;;;;;;;11.41;76.75;98012.42;117025;1177;69279;-73
2021/09/26 01:23:03;;;;;;;9.20;6.30;;;;;;;11.40;76.30;98012.25;117065;1177;58835;-74
2021/09/26 01:26:07;;;;;;;6.90;5.20;;;;;;;11.40;76.81;98007.02;117145;1177;58680;-74
2021/09/26 01:28:55;;;;;;;8.90;6.40;;;;;;;11.41;76.23;98004.90;117299;1176;70795;-73
2021/09/26 01:31:39;;;;;;;7.00;5.30;;;;;;;11.41;76.65;98012.59;117303;1176;69031;-75
2021/09/26 01:34:10;;;;;;;8.80;6.90;;;;;;;11.41;76.91;98018.66;117221;1177;69033;-74
2021/09/26 01:36:55;;;;;;;8.30;6.50;;;;;;;11.40;77.08;98022.39;117265;1177;58774;-72
2021/09/26 01:39:32;;;;;;;5.40;3.80;;;;;;;11.40;76.38;98017.53;117264;1177;59097;-74
2021/09/26 01:42:17;;;;;;;15.50;10.40;;;;;;;11.42;76.03;98015.11;117304;1177;69488;-73
2021/09/26 01:44:47;;;;;;;10.10;7.20;;;;;;;11.37;77.92;98015.79;117006;1177;68432;-74
2021/09/26 01:47:21;;;;;;;9.10;6.20;;;;;;;11.36;77.12;98016.58;117275;1177;69065;-73
2021/09/26 01:49:58;;;;;;;12.20;7.90;;;;;;;11.35;77.02;98019.27;117355;1177;58754;-73
2021/09/26 01:52:33;;;;;;;9.60;6.20;;;;;;;11.33;77.88;98017.47;117255;1176;58675;-74
2021/09/26 01:55:05;;;;;;;18.60;13.80;;;;;;;11.32;78.25;98015.10;117293;1176;70373;-72
2021/09/26 01:57:41;;;;;;;12.60;9.20;;;;;;;11.19;81.15;98015.62;117336;1177;69196;-74
2021/09/26 02:00:11;;;;;;;7.80;6.00;;;;;;;11.17;78.69;98019.36;117315;1176;69240;-72
2021/09/26 02:02:43;;;;;;;9.40;6.30;;;;;;;11.16;77.91;98017.73;117201;1177;58697;-74
2021/09/26 02:05:13;;;;;;;7.50;5.60;;;;;;;11.14;78.04;98020.98;117302;1176;58793;-74
2021/09/26 02:07:43;;;;;;;;;;;;;;;11.10;78.30;98018.66;117316;1176;70706;-74
2021/09/26 02:10:17;;;;;;;13.70;9.20;;;;;;;11.02;80.81;98020.05;117080;1177;69164;-74
2021/09/26 02:12:46;;;;;;;9.00;6.50;;;;;;;10.96;81.29;98022.69;117252;1177;68535;-73
2021/09/26 02:15:20;;;;;;;8.90;6.80;;;;;;;10.94;80.90;98021.04;117089;1177;58692;-73
2021/09/26 02:17:53;;;;;;;10.10;7.50;;;;;;;10.94;81.12;98021.75;117346;1176;58693;-72
2021/09/26 02:20:24;;;;;;;7.00;4.90;;;;;;;10.97;80.11;98024.54;117283;1177;70566;-72
2021/09/26 02:22:57;;;;;;;7.10;4.70;;;;;;;11.00;79.29;98027.83;117219;1177;68941;-73
2021/09/26 02:25:27;;;;;;;6.70;5.10;;;;;;;11.04;78.35;98025.33;117322;1176;69237;-74
2021/09/26 02:27:57;;;;;;;;;;;;;;;11.06;78.16;98019.40;117400;1177;59102;-71
2021/09/26 02:30:27;;;;;;;9.40;6.60;;;;;;;11.10;78.32;98013.42;117211;1177;58698;-71
2021/09/26 02:32:57;;;;;;;8.50;6.10;;;;;;;11.10;77.99;98013.77;117294;1177;70531;-75
2021/09/26 02:35:26;;;;;;;12.60;8.00;;;;;;;11.10;78.89;98013.03;117386;1176;68431;-74
2021/09/26 02:37:56;;;;;;;7.10;4.90;;;;;;;11.09;78.60;98014.33;117335;1177;70198;-74
2021/09/26 02:40:25;;;;;;;6.30;4.90;;;;;;;11.09;77.73;98014.49;117395;1176;58717;-74
2021/09/26 02:42:58;;;;;;;11.20;7.50;;;;;;;11.08;78.78;98010.73;117432;1176;58665;-73
2021/09/26 02:46:05;;;;;;;7.00;4.90;;;;;;;11.04;80.75;98008.21;117400;1176;69943;-73
2021/09/26 02:48:35;;;;;;;8.30;6.00;;;;;;;11.05;78.62;98007.80;117268;1176;68312;-75
2021/09/26 02:51:04;;;;;;;;;;;;;;;11.06;78.38;98012.07;117334;1176;70117;-73
2021/09/26 02:53:36;;;;;;;12.10;8.50;;;;;;;11.07;78.61;98013.93;117383;1177;58703;-74
2021/09/26 02:56:07;;;;;;;11.40;7.20;;;;;;;11.03;81.01;98020.83;117469;1176;58703;-72
2021/09/26 02:58:40;;;;;;;10.70;6.30;;;;;;;11.02;80.07;98025.77;117458;1176;69742;-74
2021/09/26 03:01:10;;;;;;;10.60;7.60;;;;;;;11.03;80.42;98029.73;117365;1177;67599;-73
2021/09/26 03:03:42;;;;;;;6.60;4.80;;;;;;;11.03;80.98;98032.19;116973;1177;68314;-72
2021/09/26 03:06:25;;;;;;;9.20;5.80;;;;;;;11.04;79.95;98033.14;117255;1176;59397;-74
2021/09/26 03:08:56;;;;;;;7.70;5.80;;;;;;;11.06;80.73;98033.39;117350;1177;58671;-73
2021/09/26 03:11:26;;;;;;;5.70;4.50;;;;;;;11.08;79.62;98037.11;117443;1176;68925;-73
2021/09/26 03:13:55;;;;;;;5.10;3.70;;;;;;;11.10;78.92;98035.86;117041;1177;69192;-72
2021/09/26 03:16:39;;;;;;;10.90;7.00;;;;;;;11.13;78.96;98031.48;117324;1176;68397;-74
2021/09/26 03:19:08;;;;;;;6.10;4.10;;;;;;;11.15;79.27;98037.35;117379;1176;58736;-73
2021/09/26 03:21:38;;;;;;;7.90;5.50;;;;;;;11.16;78.35;98035.67;117419;1176;58724;-73
2021/09/26 03:24:07;;;;;;;8.10;5.00;;;;;;;11.16;79.83;98033.90;117352;1173;70175;-73
2021/09/26 03:26:37;;;;;;;7.60;4.60;;;;;;;11.17;79.10;98032.84;117384;1176;68390;-71
2021/09/26 03:29:06;;;;;;;5.20;3.50;;;;;;;11.17;79.01;98038.89;117242;1176;68410;-75
2021/09/26 03:31:35;;;;;;;8.10;5.50;;;;;;;11.19;78.68;98034.64;117299;1177;58707;-73
2021/09/26 03:34:05;;;;;;;7.10;5.00;;;;;;;11.19;80.13;98036.20;117358;1176;58671;-73
2021/09/26 03:36:39;;;;;;;6.50;5.30;;;;;;;11.19;79.21;98034.98;117018;1177;68955;-72
2021/09/26 03:39:14;;;;;;;7.80;5.00;;;;;;;11.22;78.78;98029.02;117280;1176;69314;-74
2021/09/26 03:41:43;;;;;;;6.00;4.40;;;;;;;11.24;79.30;98033.60;117290;1176;69518;-74
2021/09/26 03:44:13;;;;;;;7.10;5.00;;;;;;;11.24;78.80;98037.64;117396;1176;59092;-72
2021/09/26 03:46:43;;;;;;;;;;;;;;;11.23;78.59;98040.81;117379;1177;58684;-73
2021/09/26 03:49:12;;;;;;;8.60;6.80;;;;;;;11.18;80.54;98038.70;117375;1177;69771;-77
2021/09/26 03:51:43;;;;;;;10.70;8.00;;;;;;;11.18;79.01;98037.47;117393;1176;68261;-72
2021/09/26 03:54:19;;;;;;;7.30;5.10;;;;;;;11.15;79.96;98039.05;117144;1177;68342;-72
2021/09/26 03:56:53;;;;;;;6.30;4.50;;;;;;;11.15;78.80;98039.27;117384;1176;58723;-73
2021/09/26 03:59:22;;;;;;;9.30;5.40;;;;;;;11.15;78.86;98034.33;117379;1177;58688;-74
2021/09/26 04:01:52;;;;;;;5.20;4.00;;;;;;;11.15;79.42;98039.56;117333;1177;69610;-74
2021/09/26 04:04:21;;;;;;;6.20;4.20;;;;;;;11.16;78.59;98040.72;117360;1176;69206;-74
2021/09/26 04:06:51;;;;;;;5.20;4.00;;;;;;;11.17;78.41;98036.27;117366;1177;67831;-73
2021/09/26 04:09:21;;;;;;;7.70;5.90;;;;;;;11.19;78.46;98036.56;117285;1176;58755;-73
2021/09/26 04:11:50;;;;;;;9.20;6.30;;;;;;;11.19;79.33;98036.73;117408;1177;58719;-74
2021/09/26 04:14:20;;;;;;;8.90;5.30;;;;;;;11.20;78.71;98034.39;117376;1176;69635;-74
2021/09/26 04:16:52;;;;;;;8.40;5.70;;;;;;;11.22;78.36;98037.21;117376;1176;69275;-72
2021/09/26 04:19:21;;;;;;;9.20;6.60;;;;;;;11.23;79.63;98038.35;117329;1176;69226;-73
2021/09/26 04:21:51;;;;;;;8.00;5.60;;;;;;;11.21;80.55;98039.67;117337;1174;58716;-74
2021/09/26 04:24:20;;;;;;;7.80;4.80;;;;;;;11.21;79.25;98040.04;117328;1176;58774;-72
2021/09/26 04:26:59;;;;;;;7.80;5.40;;;;;;;11.21;80.11;98040.20;117283;1176;69924;-74
2021/09/26 04:29:29;;;;;;;5.70;3.30;;;;;;;11.21;80.04;98038.46;117436;1177;69298;-74
2021/09/26 04:31:58;;;;;;;8.60;6.30;;;;;;;11.23;79.64;98044.80;117360;1176;68418;-77
2021/09/26 04:34:28;;;;;;;8.90;6.40;;;;;;;11.26;79.96;98045.53;117373;1176;58803;-72
2021/09/26 04:36:57;;;;;;;10.30;7.50;;;;;;;11.28;80.05;98045.77;117369;1176;58710;-74
2021/09/26 04:39:26;;;;;;;7.50;5.40;;;;;;;11.29;79.73;98045.98;117372;1177;69555;-75
2021/09/26 04:41:55;;;;;;;16.50;12.30;;;;;;;11.34;78.93;98039.05;117386;1177;68759;-76
2021/09/26 04:44:24;;;;;;;10.60;7.00;;;;;;;11.32;81.43;98042.48;117351;1176;69278;-75
2021/09/26 04:46:54;;;;;;;8.30;7.20;;;;;;;11.35;79.61;98048.27;117239;1176;58682;-71
2021/09/26 04:49:28;;;;;;;7.60;6.30;;;;;;;11.36;81.31;98049.03;117371;1176;58710;-74
2021/09/26 04:51:59;;;;;;;9.70;6.70;;;;;;;11.37;80.30;98047.91;117412;1176;70339;-76
2021/09/26 04:54:28;;;;;;;6.40;4.70;;;;;;;11.40;79.96;98051.36;117452;1177;69295;-72
2021/09/26 04:56:58;;;;;;;6.10;4.50;;;;;;;11.45;79.22;98051.36;117044;1177;68308;-71
2021/09/26 04:59:28;;;;;;;8.60;7.30;;;;;;;11.50;80.34;98048.65;117261;1175;58710;-71
2021/09/26 05:01:57;;;;;;;7.50;6.10;;;;;;;11.51;81.83;98049.62;117331;1177;58744;-75
2021/09/26 05:04:27;;;;;;;6.50;5.50;;;;;;;11.55;80.75;98052.85;117340;1177;69412;-73
2021/09/26 05:06:57;;;;;;;6.80;5.10;;;;;;;11.60;80.22;98055.27;117321;1177;68952;-74
2021/09/26 05:09:27;;;;;;;8.40;6.10;;;;;;;11.65;80.35;98054.92;117328;1177;69082;-76
2021/09/26 05:11:56;;;;;;;9.30;6.90;;;;;;;11.71;80.78;98054.02;117267;1176;58789;-73
2021/09/26 05:14:25;;;;;;;11.50;8.10;;;;;;;11.78;80.50;98053.61;117355;1169;58754;-73
2021/09/26 05:16:56;;;;;;;11.50;7.50;;;;;;;11.84;79.51;98054.91;117404;1177;69690;-74
2021/09/26 05:19:39;;;;;;;10.90;8.40;;;;;;;11.92;79.60;98054.04;117305;1177;68367;-73
2021/09/26 05:22:09;;;;;;;17.60;11.90;;;;;;;11.96;80.32;98057.10;117042;1176;68294;-74
2021/09/26 05:24:38;;;;;;;12.40;9.10;;;;;;;11.97;80.60;98060.15;117239;1177;58734;-72
2021/09/26 05:27:07;;;;;;;17.10;10.90;;;;;;;12.03;79.52;98062.58;117316;1177;58789;-72
2021/09/26 05:29:36;;;;;;;14.00;10.40;;;;;;;12.10;79.49;98060.14;117320;1174;70489;-73
2021/09/26 05:32:07;;;;;;;11.90;8.40;;;;;;;12.19;79.71;98061.77;117151;1177;69169;-72
2021/09/26 05:34:36;;;;;;;12.10;8.20;;;;;;;12.29;78.98;98065.67;117362;1176;70448;-75
2021/09/26 05:37:06;;;;;;;14.60;10.60;;;;;;;12.38;79.63;98068.68;117295;1177;58800;-74
2021/09/26 05:39:35;;;;;;;8.30;5.60;;;;;;;12.47;79.57;98061.27;117321;1174;58750;-72
2021/09/26 05:42:06;;;;;;;10.10;7.60;;;;;;;12.57;78.51;98063.13;117255;1176;70585;-73
2021/09/26 05:44:36;;;;;;;12.00;8.30;;;;;;;12.65;78.15;98062.45;117025;1177;69278;-72
2021/09/26 05:47:07;;;;;;;10.50;7.40;;;;;;;12.75;78.17;98066.98;117278;1177;68389;-74
2021/09/26 05:49:37;;;;;;;17.30;12.50;;;;;;;12.91;78.79;98066.02;117362;1177;58778;-73
2021/09/26 05:52:08;;;;;;;11.20;8.00;;;;;;;13.08;78.54;98068.10;117327;1176;58726;-71
2021/09/26 05:54:40;;;;;;;9.30;6.70;;;;;;;13.27;77.33;98070.44;117151;1177;70565;-73
2021/09/26 05:57:09;;;;;;;10.40;7.50;;;;;;;13.46;76.53;98074.66;117193;1176;68696;-71
2021/09/26 05:59:39;;;;;;;10.00;7.00;;;;;;;13.62;74.82;98076.20;117152;1176;69269;-72
2021/09/26 06:02:10;;;;;;;;;;;;;;;13.78;74.15;98078.34;117304;1177;58717;-72
2021/09/26 06:04:40;;;;;;;7.50;5.60;;;;;;;13.96;73.23;98077.67;117009;1177;58675;-73
2021/09/26 06:07:08;;;;;;;9.30;7.20;;;;;;;14.16;74.00;98078.77;117261;1176;69899;-73
2021/09/26 06:09:37;;;;;;;8.60;6.40;;;;;;;14.40;70.96;98075.91;117227;1176;69198;-72
2021/09/26 06:12:07;;;;;;;7.90;5.20;;;;;;;14.62;71.63;98078.37;117314;1177;68995;-72
2021/09/26 06:14:36;;;;;;;6.90;5.20;;;;;;;14.78;69.69;98080.09;117207;1176;58729;-74
2021/09/26 06:17:06;;;;;;;6.50;5.10;;;;;;;14.97;70.29;98079.13;116981;1177;58793;-72
2021/09/26 06:19:35;;;;;;;6.60;5.00;;;;;;;15.14;69.45;98077.95;117007;1177;69582;-71
2021/09/26 06:22:04;;;;;;;7.50;6.50;;;;;;;15.27;69.21;98080.91;117117;1177;69381;-72
2021/09/26 06:24:34;;;;;;;9.10;6.10;;;;;;;15.43;68.14;98081.73;116921;1177;68316;-73
2021/09/26 06:27:06;;;;;;;6.40;5.10;;;;;;;15.54;67.51;98079.55;117181;1177;58724;-72
2021/09/26 06:29:35;;;;;;;7.60;6.40;;;;;;;15.70;67.27;98081.46;117243;1177;58729;-72
2021/09/26 06:32:09;;;;;;;6.50;5.20;;;;;;;15.93;66.45;98086.73;117187;1177;70388;-73
2021/09/26 06:34:40;;;;;;;6.40;4.60;;;;;;;16.06;66.04;98086.69;116941;1177;69028;-72
2021/09/26 06:37:09;;;;;;;6.40;4.90;;;;;;;16.16;66.55;98091.61;117171;1176;68149;-74
2021/09/26 06:39:39;;;;;;;6.90;5.60;;;;;;;16.23;65.53;98090.17;117200;1176;58729;-73
2021/09/26 06:42:08;;;;;;;;;;;;;;;16.31;65.76;98094.55;117008;1176;58716;-72
2021/09/26 06:44:37;;;;;;;8.60;5.60;;;;;;;16.38;64.15;98099.81;117168;1176;69800;-73
2021/09/26 06:47:06;;;;;;;5.90;4.20;;;;;;;16.41;64.57;98100.45;117052;1177;69324;-73
2021/09/26 06:49:37;;;;;;;7.00;5.00;;;;;;;16.50;64.86;98097.91;117051;1177;68173;-72
2021/09/26 06:52:07;;;;;;;8.00;4.70;;;;;;;16.60;64.25;98096.84;117169;1177;58733;-73
2021/09/26 06:54:37;;;;;;;6.90;5.10;;;;;;;16.67;63.66;98100.96;117002;1176;58755;-75
2021/09/26 06:57:09;;;;;;;5.00;3.90;;;;;;;16.80;64.11;98102.18;117198;1176;70607;-74
2021/09/26 06:59:39;;;;;;;5.00;3.80;;;;;;;16.99;64.43;98100.17;117231;1176;69082;-75
2021/09/26 07:02:08;;;;;;;;;;;;;;;17.14;61.94;98097.77;117275;1176;68467;-75
2021/09/26 07:04:38;;;;;;;6.70;4.80;;;;;;;17.38;62.61;98104.40;117306;1176;58688;-72
2021/09/26 07:07:06;;;;;;;8.00;6.30;;;;;;;17.66;59.77;98108.45;116999;1177;58694;-72
2021/09/26 07:09:35;;;;;;;6.70;5.50;;;;;;;17.71;59.25;98111.16;117178;1176;69829;-73
2021/09/26 07:12:05;;;;;;;5.40;4.30;;;;;;;17.85;58.29;98106.76;117364;1177;68600;-73
2021/09/26 07:14:34;;;;;;;4.80;3.90;;;;;;;18.06;59.47;98108.01;117362;1176;69266;-72
2021/09/26 07:17:03;;;;;;;5.20;4.40;;;;;;;18.20;58.23;98107.52;117335;1168;58707;-72
2021/09/26 07:19:32;;;;;;;6.20;5.60;;;;;;;18.53;58.70;98111.36;117325;1177;58701;-71
2021/09/26 07:22:01;;;;;;;6.80;4.70;;;;;;;18.14;57.18;98114.14;117278;1176;70657;-71
2021/09/26 07:24:31;;;;;;;8.80;6.10;;;;;;;17.89;58.31;98111.98;117354;1177;69235;-71
2021/09/26 07:27:02;;;;;;;6.90;6.00;;;;;;;17.93;58.27;98113.40;117164;1176;67496;-74
2021/09/26 07:29:31;;;;;;;5.50;5.00;;;;;;;17.65;58.76;98119.98;117087;1176;58749;-72
2021/09/26 07:32:00;;;;;;;6.20;5.60;;;;;;;17.85;58.49;98120.64;117176;1177;58802;-73
2021/09/26 07:34:29;;;;;;;7.50;6.40;;;;;;;17.90;58.41;98118.98;117195;1177;69820;-71
2021/09/26 07:36:58;;;;;;;7.10;5.70;;;;;;;17.75;58.88;98121.00;117001;1176;68739;-72
2021/09/26 07:39:26;;;;;;;6.10;5.50;;;;;;;17.59;58.55;98123.17;116998;1177;68276;-73
2021/09/26 07:41:55;;;;;;;6.40;4.30;;;;;;;17.91;58.14;98122.37;117214;1177;58752;-72
2021/09/26 07:44:24;;;;;;;6.00;4.40;;;;;;;18.33;58.47;98122.58;116893;1177;58710;-72
2021/09/26 07:46:54;;;;;;;5.70;4.70;;;;;;;18.82;56.41;98120.10;116995;1177;70488;-72
2021/09/26 07:49:23;;;;;;;6.10;4.90;;;;;;;19.21;55.36;98117.05;116968;1177;69336;-73
2021/09/26 07:51:53;;;;;;;4.70;4.20;;;;;;;19.52;54.45;98117.70;116919;1177;68497;-73
2021/09/26 07:54:22;;;;;;;5.50;4.80;;;;;;;19.96;53.22;98116.77;117297;1176;58736;-73
2021/09/26 07:56:51;;;;;;;6.50;5.30;;;;;;;20.59;53.58;98119.59;117229;1176;58728;-73
2021/09/26 07:59:20;;;;;;;6.30;5.50;;;;;;;21.06;49.93;98120.55;117181;1177;70638;-73
2021/09/26 08:01:52;;;;;;;5.20;4.40;;;;;;;21.18;48.91;98118.60;117083;1176;68509;-73
2021/09/26 08:04:21;;;;;;;;;;;;;;;21.44;47.89;98117.80;117053;1177;69429;-75
2021/09/26 08:06:52;;;;;;;5.80;4.30;;;;;;;22.04;49.39;98117.89;116956;1177;58735;-74
2021/09/26 08:09:22;;;;;;;6.50;4.80;;;;;;;22.71;46.91;98116.06;116892;1177;58790;-72
2021/09/26 08:11:53;;;;;;;6.00;4.30;;;;;;;23.27;45.38;98115.38;116921;1177;70481;-74
2021/09/26 08:14:23;;;;;;;4.80;4.30;;;;;;;23.49;42.76;98117.13;116982;1177;68760;-72
2021/09/26 08:16:52;;;;;;;4.80;3.60;;;;;;;23.62;44.53;98117.79;116945;1177;68447;-75
2021/09/26 08:19:22;;;;;;;6.40;4.70;;;;;;;24.26;42.18;98117.27;116992;1170;58799;-75
2021/09/26 08:21:52;;;;;;;6.00;4.50;;;;;;;24.62;43.41;98115.20;116999;1176;58745;-73
2021/09/26 08:24:26;;;;;;;5.00;4.50;;;;;;;25.07;42.81;98115.13;116853;1177;71656;-75
2021/09/26 08:27:01;;;;;;;5.10;4.50;;;;;;;25.47;40.04;98114.02;116967;1176;68240;-73
2021/09/26 08:29:34;;;;;;;4.60;3.90;;;;;;;25.13;40.78;98115.85;116934;1178;69217;-75
2021/09/26 08:32:09;;;;;;;5.20;4.40;;;;;;;25.18;39.17;98112.33;116962;1176;58688;-73
2021/09/26 08:34:39;;;;;;;4.40;3.50;;;;;;;24.54;40.63;98109.52;117026;1177;58720;-74
2021/09/26 08:37:08;;;;;;;4.90;4.10;;;;;;;25.28;40.26;98106.77;116931;1177;69554;-74
2021/09/26 08:39:38;;;;;;;4.80;3.50;;;;;;;25.79;39.82;98107.30;117173;1176;68444;-75
2021/09/26 08:42:08;;;;;;;5.10;4.10;;;;;;;26.50;37.47;98108.75;117145;1177;69494;-74
2021/09/26 08:44:40;;;;;;;4.10;3.50;;;;;;;26.26;37.05;98111.63;117062;1177;58740;-75
2021/09/26 08:47:11;;;;;;;5.20;3.90;;;;;;;26.78;37.20;98109.36;116930;1177;58851;-75
2021/09/26 08:49:40;;;;;;;5.50;3.30;;;;;;;26.96;36.47;98106.40;117118;1177;70494;-73
2021/09/26 08:52:09;;;;;;;6.00;4.90;;;;;;;27.37;35.48;98102.63;116991;1177;69241;-73
2021/09/26 08:54:39;;;;;;;5.00;3.30;;;;;;;27.26;35.42;98099.07;117177;1176;69251;-74
2021/09/26 08:57:08;;;;;;;5.50;4.30;;;;;;;27.59;35.17;98100.58;117087;1177;58668;-76
2021/09/26 08:59:37;;;;;;;;;;;;;;;26.31;35.59;98100.39;117123;1177;58681;-75
2021/09/26 09:02:06;;;;;;;4.70;4.30;;;;;;;24.75;38.88;98096.14;117166;1177;70336;-73
2021/09/26 09:04:39;;;;;;;4.40;3.60;;;;;;;25.01;38.11;98092.63;116993;1177;69242;-73
2021/09/26 09:07:11;;;;;;;4.60;3.60;;;;;;;25.35;38.01;98091.48;117065;1177;67547;-75
2021/09/26 09:09:49;;;;;;;4.70;3.90;;;;;;;26.10;37.18;98094.01;117129;1176;58733;-74
2021/09/26 09:12:23;;;;;;;5.10;3.50;;;;;;;26.87;37.13;98091.98;117213;1177;58822;-74
2021/09/26 09:14:58;;;;;;;5.00;4.50;;;;;;;27.57;35.05;98091.55;117053;1177;69930;-74
2021/09/26 09:17:44;;;;;;;5.40;3.60;;;;;;;27.51;34.37;98085.40;117174;1176;68538;-73
2021/09/26 09:20:25;;;;;;;4.10;3.60;;;;;;;28.25;35.09;98082.80;117007;1177;69462;-73
2021/09/26 09:23:08;;;;;;;4.10;3.60;;;;;;;28.67;33.11;98086.66;117039;1177;58700;-73
2021/09/26 09:25:40;;;;;;;3.50;3.20;;;;;;;29.23;32.15;98089.31;117122;1168;58774;-74
2021/09/26 09:28:20;;;;;;;5.00;3.90;;;;;;;28.85;30.70;98087.66;117107;1177;69847;-73
2021/09/26 09:30:55;;;;;;;3.40;2.70;;;;;;;27.79;32.48;98082.06;117331;1176;68491;-76
2021/09/26 09:33:36;;;;;;;4.00;3.60;;;;;;;28.69;32.48;98087.27;117202;1176;69090;-74
2021/09/26 09:36:29;;;;;;;3.40;2.90;;;;;;;29.35;31.74;98091.06;116915;1178;59127;-79
2021/09/26 09:39:08;;;;;;;4.10;3.70;;;;;;;30.18;29.97;98089.09;117043;1177;58745;-76
2021/09/26 09:41:47;;;;;;;4.20;2.70;;;;;;;30.32;30.80;98092.06;117060;1177;69791;-76
2021/09/26 09:44:40;;;;;;;2.80;2.50;;;;;;;30.61;30.11;98087.46;116957;1177;68416;-79
2021/09/26 09:47:16;;;;;;;4.10;3.10;;;;;;;30.98;27.98;98085.61;117146;1176;68456;-75
2021/09/26 09:49:55;;;;;;;4.40;3.60;;;;;;;30.97;27.41;98087.04;117083;1177;58733;-80
2021/09/26 09:52:53;;;;;;;4.70;3.50;;;;;;;30.40;28.20;98083.98;117099;1176;58639;-77
2021/09/26 09:55:29;;;;;;;4.20;2.70;;;;;;;30.16;29.11;98078.98;117219;1177;69754;-75
2021/09/26 09:58:13;;;;;;;3.20;2.50;;;;;;;30.51;28.26;98077.88;117256;1177;68470;-78
2021/09/26 10:00:55;;;;;;;3.60;2.60;;;;;;;30.84;27.92;98076.91;117243;1177;69113;-77
2021/09/26 10:03:36;;;;;;;4.10;3.10;;;;;;;31.05;27.44;98075.23;117138;1176;58678;-77
2021/09/26 10:06:32;;;;;;;3.90;3.30;;;;;;;30.85;27.47;98074.63;117217;1177;58729;-75
2021/09/26 10:09:23;;;;;;;4.10;3.50;;;;;;;30.73;26.82;98080.91;117010;1177;69923;-76
2021/09/26 10:12:01;;;;;;;3.60;2.70;;;;;;;28.15;30.40;98073.16;117044;1177;68415;-76
2021/09/26 10:14:35;;;;;;;3.90;3.60;;;;;;;28.76;29.60;98074.63;117064;1177;68783;-75
2021/09/26 10:17:06;;;;;;;3.30;2.50;;;;;;;28.72;29.48;98069.33;117007;1177;58707;-74
2021/09/26 10:19:35;;;;;;;4.80;3.60;;;;;;;29.79;29.43;98067.07;117155;1177;58708;-75
2021/09/26 10:22:05;;;;;;;3.80;3.10;;;;;;;30.37;28.22;98070.59;117178;1177;69303;-74
2021/09/26 10:24:36;;;;;;;3.50;3.20;;;;;;;29.66;28.75;98064.45;117063;1177;68345;-76
2021/09/26 10:27:08;;;;;;;4.10;3.00;;;;;;;30.36;28.10;98064.66;117313;1177;68498;-76
2021/09/26 10:29:40;;;;;;;3.30;2.70;;;;;;;31.40;26.14;98056.13;117154;1177;58694;-75
2021/09/26 10:32:10;;;;;;;3.30;3.00;;;;;;;31.92;25.27;98053.48;117068;1177;58714;-77
2021/09/26 10:34:40;;;;;;;3.80;3.40;;;;;;;32.20;24.20;98048.50;117061;1177;70557;-75
2021/09/26 10:37:14;;;;;;;3.10;2.60;;;;;;;32.29;24.28;98042.16;117021;1177;69083;-75
2021/09/26 10:39:44;;;;;;;5.70;3.10;;;;;;;32.97;23.92;98043.65;117117;1177;68755;-75
2021/09/26 10:42:18;;;;;;;4.40;2.90;;;;;;;33.05;23.05;98045.42;117058;1177;58716;-75
2021/09/26 10:44:53;;;;;;;3.70;3.20;;;;;;;33.32;22.57;98038.45;117163;1177;58672;-75
2021/09/26 10:47:25;;;;;;;3.60;3.00;;;;;;;33.15;23.41;98042.06;117056;1177;69815;-75
2021/09/26 10:50:15;;;;;;;4.00;3.20;;;;;;;32.28;23.75;98043.19;117070;1177;69511;-75
2021/09/26 10:52:48;;;;;;;3.40;2.70;;;;;;;32.33;24.46;98034.93;117058;1170;69277;-76
2021/09/26 10:55:22;;;;;;;3.10;2.80;;;;;;;32.39;24.21;98032.45;117127;1178;58716;-75
2021/09/26 10:58:00;;;;;;;3.20;2.70;;;;;;;32.81;24.62;98028.74;117140;1177;58796;-76
2021/09/26 11:00:47;;;;;;;2.60;2.30;;;;;;;33.16;24.45;98023.29;117042;1177;70387;-75
2021/09/26 11:03:22;;;;;;;3.00;2.70;;;;;;;33.04;24.21;98012.34;117165;1176;68578;-75
2021/09/26 11:05:52;;;;;;;3.70;3.20;;;;;;;32.50;24.09;98009.30;117092;1177;69266;-76
2021/09/26 11:08:24;;;;;;;4.00;3.40;;;;;;;31.37;24.28;98008.75;117157;1176;58720;-76
2021/09/26 11:11:00;;;;;;;3.70;2.90;;;;;;;29.80;26.71;98011.22;117023;1177;58748;-75
2021/09/26 11:13:33;;;;;;;4.90;4.10;;;;;;;29.59;26.98;98012.70;117151;1177;70888;-75
2021/09/26 11:16:14;;;;;;;3.30;3.00;;;;;;;27.71;29.57;98005.82;117259;1177;69203;-75
2021/09/26 11:18:47;;;;;;;4.90;3.80;;;;;;;27.88;29.34;98007.71;117096;1177;69369;-75
2021/09/26 11:21:35;;;;;;;3.20;2.80;;;;;;;27.84;30.49;98004.86;117091;1177;58677;-75
2021/09/26 11:24:07;;;;;;;4.40;3.20;;;;;;;27.81;32.01;98001.67;117171;1177;58719;-75
2021/09/26 11:26:58;;;;;;;3.00;2.60;;;;;;;27.80;31.83;97998.83;117040;1177;71204;-74
2021/09/26 11:29:41;;;;;;;3.30;2.40;;;;;;;27.84;32.05;97998.25;117316;1177;69238;-75
2021/09/26 11:32:19;;;;;;;4.40;2.80;;;;;;;28.00;31.92;97995.95;117339;1177;67311;-75
2021/09/26 11:34:55;;;;;;;5.20;4.20;;;;;;;28.14;31.85;97994.33;117380;1175;58681;-76
2021/09/26 11:37:54;;;;;;;3.60;2.50;;;;;;;28.18;32.25;97992.09;117184;1175;58691;-75
2021/09/26 11:40:48;;;;;;;4.10;2.60;;;;;;;28.27;31.60;97990.13;116575;1179;71245;-77
2021/09/26 11:43:22;;;;;;;4.60;3.10;;;;;;;29.15;31.20;97989.71;116559;1181;69158;-76
2021/09/26 11:45:55;;;;;;;3.30;2.40;;;;;;;30.20;29.62;97991.17;116636;1180;69299;-77
2021/09/26 11:48:36;;;;;;;4.00;2.70;;;;;;;30.34;29.19;97985.33;116581;1181;58700;-76
2021/09/26 11:51:08;;;;;;;3.50;3.20;;;;;;;30.27;29.19;97983.12;116550;1180;58813;-76
2021/09/26 11:53:38;;;;;;;4.10;2.90;;;;;;;30.12;28.50;97979.33;116563;1180;71645;-76